Time;durP1;ratioP1;P1;durP2;ratioP2;P2;SDS_P1;SDS_P2;PMS_P1;PMS_P2;Temp;Humidity;BMP_temperature;BMP_pressure;BME280_temperature;BME280_humidity;BME280_pressure;Samples;Min_cycle;Max_cycle;Signal;HPM_P1;HPM_P2
2023/03/19 00:01:47;;;;;;;33.83;27.02;;;;;;;;;;5021624;28;20049;-77
2023/03/19 00:04:15;;;;;;;36.50;28.85;;;;;;;;;;5008210;28;20052;-78
2023/03/19 00:06:41;;;;;;;32.45;28.27;;;;;;;;;;5011763;28;20044;-78
2023/03/19 00:09:07;;;;;;;32.33;28.83;;;;;;;;;;5004664;28;20056;-79
2023/03/19 00:11:33;;;;;;;34.90;27.67;;;;;;;;;;5021386;28;20520;-79
2023/03/19 00:13:59;;;;;;;35.55;29.75;;;;;;;;;;5005479;28;20056;-79
2023/03/19 00:16:26;;;;;;;35.05;28.88;;;;;;;;;;5003637;28;20219;-79
2023/03/19 00:18:52;;;;;;;34.10;29.45;;;;;;;;;;5002545;28;20049;-79
2023/03/19 00:21:19;;;;;;;34.75;28.92;;;;;;;;;;4992671;28;20037;-79
2023/03/19 00:23:45;;;;;;;33.45;29.80;;;;;;;;;;5002930;28;20107;-79
2023/03/19 00:26:12;;;;;;;35.35;29.40;;;;;;;;;;5009293;28;20041;-79
2023/03/19 00:28:38;;;;;;;37.17;30.02;;;;;;;;;;5020417;28;20243;-79
2023/03/19 00:31:11;;;;;;;34.42;30.60;;;;;;;;;;5018682;28;20049;-80
2023/03/19 00:33:37;;;;;;;36.10;30.88;;;;;;;;;;5019526;28;20154;-80
2023/03/19 00:36:04;;;;;;;35.33;30.42;;;;;;;;;;5018088;28;20038;-79
2023/03/19 00:38:31;;;;;;;36.50;29.77;;;;;;;;;;5002379;28;20041;-80
2023/03/19 00:40:57;;;;;;;37.58;30.83;;;;;;;;;;5019333;28;20149;-79
2023/03/19 00:43:24;;;;;;;34.35;29.83;;;;;;;;;;5019600;28;20142;-80
2023/03/19 00:45:50;;;;;;;39.35;31.80;;;;;;;;;;5015692;28;20049;-79
2023/03/19 00:48:17;;;;;;;35.47;31.02;;;;;;;;;;5019337;28;20041;-79
2023/03/19 00:50:43;;;;;;;37.63;31.60;;;;;;;;;;5020116;28;20045;-79
2023/03/19 00:53:09;;;;;;;35.50;30.55;;;;;;;;;;5002582;28;20040;-79
2023/03/19 00:55:35;;;;;;;36.10;31.63;;;;;;;;;;5003351;28;20131;-79
2023/03/19 00:58:01;;;;;;;37.35;31.05;;;;;;;;;;5019213;28;20062;-79
2023/03/19 01:00:27;;;;;;;36.03;30.48;;;;;;;;;;5019422;28;20040;-79
2023/03/19 01:02:54;;;;;;;36.25;30.70;;;;;;;;;;5003901;28;20059;-79
2023/03/19 01:05:20;;;;;;;36.65;31.10;;;;;;;;;;5002008;28;20045;-79
2023/03/19 01:07:46;;;;;;;36.08;30.02;;;;;;;;;;5016451;28;20144;-79
2023/03/19 01:10:12;;;;;;;36.53;30.65;;;;;;;;;;4996989;28;20052;-79
2023/03/19 01:12:38;;;;;;;39.17;32.05;;;;;;;;;;5001428;28;20048;-79
2023/03/19 01:15:05;;;;;;;38.10;30.70;;;;;;;;;;4999442;28;20044;-79
2023/03/19 01:17:32;;;;;;;34.58;30.65;;;;;;;;;;5015373;28;20037;-79
2023/03/19 01:19:58;;;;;;;36.47;30.80;;;;;;;;;;5016576;28;20145;-79
2023/03/19 01:22:25;;;;;;;36.60;30.42;;;;;;;;;;4999691;28;20056;-80
2023/03/19 01:24:51;;;;;;;35.63;30.88;;;;;;;;;;5015564;28;20048;-79
2023/03/19 01:27:17;;;;;;;35.33;29.00;;;;;;;;;;5014357;28;21999;-79
2023/03/19 01:29:43;;;;;;;34.45;29.52;;;;;;;;;;5000928;28;20072;-79
2023/03/19 01:32:10;;;;;;;36.83;30.95;;;;;;;;;;5017138;28;20060;-80
2023/03/19 01:34:36;;;;;;;42.40;31.00;;;;;;;;;;4997442;28;20045;-79
2023/03/19 01:37:02;;;;;;;35.25;29.40;;;;;;;;;;5004892;28;20270;-79
2023/03/19 01:39:28;;;;;;;32.58;29.08;;;;;;;;;;5004988;28;20070;-79
2023/03/19 01:41:54;;;;;;;34.10;27.30;;;;;;;;;;5000639;28;20086;-79
2023/03/19 01:44:23;;;;;;;32.92;27.17;;;;;;;;;;5003617;28;20041;-79
2023/03/19 01:46:50;;;;;;;30.90;25.92;;;;;;;;;;5002972;28;20046;-79
2023/03/19 01:49:17;;;;;;;29.77;26.02;;;;;;;;;;4997276;28;20163;-79
2023/03/19 01:51:45;;;;;;;28.98;24.23;;;;;;;;;;5016488;28;20037;-80
2023/03/19 01:54:13;;;;;;;28.52;24.77;;;;;;;;;;5015349;28;20040;-79
2023/03/19 01:56:40;;;;;;;31.63;24.67;;;;;;;;;;5015621;28;20424;-80
2023/03/19 01:59:16;;;;;;;28.98;24.10;;;;;;;;;;5000187;28;20500;-79
2023/03/19 02:01:56;;;;;;;32.13;24.92;;;;;;;;;;5015458;28;20807;-80
2023/03/19 02:04:23;;;;;;;30.55;24.35;;;;;;;;;;5015456;28;20045;-80
2023/03/19 02:06:49;;;;;;;29.90;22.10;;;;;;;;;;5016004;28;20040;-79
2023/03/19 02:09:17;;;;;;;27.50;23.20;;;;;;;;;;5014669;28;20044;-80
2023/03/19 02:11:43;;;;;;;26.27;22.38;;;;;;;;;;5016642;28;20040;-79
2023/03/19 02:14:11;;;;;;;27.45;22.15;;;;;;;;;;4997670;28;20128;-79
2023/03/19 02:16:37;;;;;;;25.67;22.15;;;;;;;;;;5016934;28;21016;-79
2023/03/19 02:19:04;;;;;;;26.38;22.40;;;;;;;;;;5017152;28;20044;-79
2023/03/19 02:21:30;;;;;;;28.38;23.58;;;;;;;;;;5014869;28;20053;-80
2023/03/19 02:23:59;;;;;;;29.42;23.63;;;;;;;;;;4980247;28;20115;-79
2023/03/19 02:26:27;;;;;;;29.77;23.95;;;;;;;;;;5015408;28;20037;-79
2023/03/19 02:28:53;;;;;;;29.15;23.50;;;;;;;;;;5014826;28;20176;-79
2023/03/19 02:31:20;;;;;;;33.15;25.58;;;;;;;;;;5016613;28;20147;-80
2023/03/19 02:34:02;;;;;;;33.33;25.67;;;;;;;;;;5003565;28;20049;-82
2023/03/19 02:36:33;;;;;;;35.45;27.30;;;;;;;;;;5008188;28;20037;-80
2023/03/19 02:39:01;;;;;;;31.63;24.75;;;;;;;;;;5016506;28;20056;-80
2023/03/19 02:41:28;;;;;;;31.10;25.50;;;;;;;;;;5015345;28;20174;-80
2023/03/19 02:43:55;;;;;;;30.92;24.73;;;;;;;;;;5000150;28;20521;-80
2023/03/19 02:46:21;;;;;;;33.63;26.80;;;;;;;;;;4996880;28;20041;-80
2023/03/19 02:48:47;;;;;;;37.50;28.45;;;;;;;;;;4999647;28;20501;-80
2023/03/19 02:51:13;;;;;;;39.83;29.13;;;;;;;;;;4999278;28;20049;-81
2023/03/19 02:53:39;;;;;;;36.05;27.25;;;;;;;;;;5018686;28;20049;-80
2023/03/19 02:56:05;;;;;;;43.33;28.98;;;;;;;;;;5018313;28;20067;-80
2023/03/19 02:58:31;;;;;;;38.60;28.65;;;;;;;;;;5021381;28;20054;-80
2023/03/19 03:00:58;;;;;;;36.45;29.67;;;;;;;;;;5009751;28;20033;-80
2023/03/19 03:03:24;;;;;;;36.42;27.77;;;;;;;;;;5018877;28;20493;-80
2023/03/19 03:05:50;;;;;;;37.40;28.85;;;;;;;;;;4990259;28;20134;-80
2023/03/19 03:08:17;;;;;;;35.80;26.83;;;;;;;;;;4990730;28;20486;-80
2023/03/19 03:10:43;;;;;;;34.80;27.20;;;;;;;;;;4992384;28;20133;-80
2023/03/19 03:13:09;;;;;;;33.67;24.77;;;;;;;;;;5005562;28;20044;-79
2023/03/19 03:15:35;;;;;;;31.30;24.90;;;;;;;;;;5024226;28;20502;-79
2023/03/19 03:18:01;;;;;;;31.27;24.40;;;;;;;;;;5003842;28;20041;-79
2023/03/19 03:20:28;;;;;;;31.90;25.48;;;;;;;;;;4989582;28;20075;-79
2023/03/19 03:22:54;;;;;;;34.20;25.20;;;;;;;;;;5001955;28;20052;-80
2023/03/19 03:25:21;;;;;;;33.10;25.23;;;;;;;;;;5020138;28;20053;-79
2023/03/19 03:27:47;;;;;;;30.58;22.70;;;;;;;;;;5002227;28;20374;-79
2023/03/19 03:30:14;;;;;;;27.30;21.20;;;;;;;;;;5016477;28;20041;-79
2023/03/19 03:32:41;;;;;;;26.83;20.05;;;;;;;;;;4986153;28;20148;-79
2023/03/19 03:35:08;;;;;;;25.48;19.85;;;;;;;;;;5017432;28;20037;-79
2023/03/19 03:37:34;;;;;;;33.65;19.60;;;;;;;;;;5004853;28;20185;-79
2023/03/19 03:40:08;;;;;;;26.42;18.90;;;;;;;;;;5006130;28;20047;-79
2023/03/19 03:42:36;;;;;;;25.60;19.48;;;;;;;;;;5001518;28;20059;-79
2023/03/19 03:45:02;;;;;;;27.20;20.48;;;;;;;;;;5017879;28;21174;-79
2023/03/19 03:47:28;;;;;;;31.83;19.35;;;;;;;;;;5016051;28;20049;-79
2023/03/19 03:49:54;;;;;;;24.55;19.42;;;;;;;;;;5001965;28;20136;-79
2023/03/19 03:52:21;;;;;;;25.60;18.98;;;;;;;;;;5000510;28;20370;-79
2023/03/19 03:54:47;;;;;;;24.55;18.25;;;;;;;;;;5001515;28;20068;-79
2023/03/19 03:57:13;;;;;;;24.10;18.08;;;;;;;;;;5017911;28;20116;-80
2023/03/19 03:59:39;;;;;;;25.33;18.83;;;;;;;;;;5019090;28;20045;-79
2023/03/19 04:02:06;;;;;;;20.80;17.63;;;;;;;;;;5016225;28;20048;-79
2023/03/19 04:04:32;;;;;;;22.13;17.05;;;;;;;;;;5013935;28;20087;-79
2023/03/19 04:06:58;;;;;;;23.10;17.52;;;;;;;;;;5018411;28;20124;-78
2023/03/19 04:09:25;;;;;;;21.02;16.83;;;;;;;;;;5003296;28;20051;-78
2023/03/19 04:11:51;;;;;;;24.13;18.77;;;;;;;;;;5019347;28;20057;-79
2023/03/19 04:14:17;;;;;;;22.20;16.27;;;;;;;;;;5012279;28;22057;-79
2023/03/19 04:16:43;;;;;;;24.00;18.33;;;;;;;;;;4999940;28;20037;-78
2023/03/19 04:19:09;;;;;;;21.42;17.15;;;;;;;;;;5017282;28;20180;-79
2023/03/19 04:21:35;;;;;;;22.30;18.23;;;;;;;;;;5017269;28;22004;-79
2023/03/19 04:24:01;;;;;;;25.23;18.98;;;;;;;;;;5017202;28;20037;-79
2023/03/19 04:26:27;;;;;;;25.77;19.58;;;;;;;;;;5005627;28;20379;-79
2023/03/19 04:28:53;;;;;;;26.05;19.13;;;;;;;;;;5003125;28;20107;-79
2023/03/19 04:31:20;;;;;;;21.70;18.70;;;;;;;;;;5008041;28;20045;-79
2023/03/19 04:33:46;;;;;;;25.10;19.13;;;;;;;;;;5000620;28;20045;-78
2023/03/19 04:36:12;;;;;;;27.30;20.50;;;;;;;;;;5002566;28;20053;-79
2023/03/19 04:38:38;;;;;;;27.10;20.13;;;;;;;;;;4999233;28;20686;-79
2023/03/19 04:41:04;;;;;;;28.70;21.42;;;;;;;;;;5002099;28;20053;-79
2023/03/19 04:43:31;;;;;;;25.48;20.33;;;;;;;;;;5015930;28;20761;-79
2023/03/19 04:45:57;;;;;;;28.58;20.92;;;;;;;;;;5016048;28;20049;-79
2023/03/19 04:48:23;;;;;;;25.33;20.33;;;;;;;;;;4992524;28;20079;-79
2023/03/19 04:50:51;;;;;;;24.90;20.50;;;;;;;;;;5015538;28;20056;-78
2023/03/19 04:53:17;;;;;;;26.67;20.73;;;;;;;;;;5010023;28;20199;-78
2023/03/19 04:55:44;;;;;;;29.30;20.75;;;;;;;;;;5013508;28;20045;-78
2023/03/19 04:58:10;;;;;;;28.30;20.98;;;;;;;;;;5007784;28;20077;-78
2023/03/19 05:00:37;;;;;;;26.65;20.35;;;;;;;;;;5008169;28;20037;-79
2023/03/19 05:03:03;;;;;;;34.03;21.08;;;;;;;;;;5019025;28;20045;-78
2023/03/19 05:05:29;;;;;;;26.15;20.08;;;;;;;;;;5016478;28;20048;-79
2023/03/19 05:07:56;;;;;;;25.83;20.38;;;;;;;;;;5001205;28;20048;-79
2023/03/19 05:10:22;;;;;;;24.42;19.83;;;;;;;;;;5016035;28;20060;-79
2023/03/19 05:12:49;;;;;;;26.40;20.25;;;;;;;;;;5002184;28;20068;-79
2023/03/19 05:15:15;;;;;;;24.40;19.88;;;;;;;;;;5014710;28;20049;-79
2023/03/19 05:17:41;;;;;;;26.92;20.45;;;;;;;;;;4998784;28;20063;-79
2023/03/19 05:20:08;;;;;;;29.83;20.05;;;;;;;;;;5016494;28;20178;-79
2023/03/19 05:22:34;;;;;;;22.70;18.60;;;;;;;;;;5014355;28;20053;-79
2023/03/19 05:25:01;;;;;;;24.55;18.65;;;;;;;;;;5016635;28;20049;-79
2023/03/19 05:27:27;;;;;;;23.02;18.92;;;;;;;;;;5000252;28;20920;-79
2023/03/19 05:29:53;;;;;;;26.63;19.25;;;;;;;;;;5007500;28;20091;-79
2023/03/19 05:32:20;;;;;;;26.67;17.48;;;;;;;;;;4997978;28;20048;-79
2023/03/19 05:34:46;;;;;;;22.58;18.80;;;;;;;;;;5015849;28;20041;-79
2023/03/19 05:37:12;;;;;;;22.05;17.83;;;;;;;;;;5015590;28;20045;-80
2023/03/19 05:39:39;;;;;;;22.27;16.90;;;;;;;;;;4998530;28;20079;-79
2023/03/19 05:42:05;;;;;;;20.27;17.48;;;;;;;;;;4999753;28;20532;-79
2023/03/19 05:44:31;;;;;;;20.25;15.60;;;;;;;;;;5000712;28;20144;-79
2023/03/19 05:46:57;;;;;;;20.88;16.80;;;;;;;;;;5015514;28;21224;-79
2023/03/19 05:49:23;;;;;;;24.00;16.58;;;;;;;;;;5001781;28;20040;-79
2023/03/19 05:51:49;;;;;;;21.38;16.35;;;;;;;;;;5001557;28;20037;-79
2023/03/19 05:54:15;;;;;;;21.02;15.98;;;;;;;;;;4999719;28;20052;-79
2023/03/19 05:56:42;;;;;;;21.40;15.43;;;;;;;;;;5002894;28;20045;-79
2023/03/19 05:59:08;;;;;;;20.65;16.42;;;;;;;;;;4997489;28;20516;-79
2023/03/19 06:01:34;;;;;;;18.92;15.70;;;;;;;;;;5006033;28;20044;-79
2023/03/19 06:04:00;;;;;;;18.00;13.63;;;;;;;;;;4997488;28;20048;-79
2023/03/19 06:06:26;;;;;;;18.13;14.77;;;;;;;;;;5014794;28;20045;-79
2023/03/19 06:08:53;;;;;;;16.52;13.45;;;;;;;;;;5016029;28;20037;-79
2023/03/19 06:11:19;;;;;;;18.63;14.77;;;;;;;;;;4997287;28;20037;-79
2023/03/19 06:13:46;;;;;;;18.85;15.20;;;;;;;;;;5014513;28;20047;-79
2023/03/19 06:16:12;;;;;;;20.33;15.65;;;;;;;;;;5015779;28;21087;-78
2023/03/19 06:18:38;;;;;;;18.13;14.98;;;;;;;;;;5012119;28;20037;-78
2023/03/19 06:21:04;;;;;;;19.77;15.18;;;;;;;;;;4980795;28;20496;-77
2023/03/19 06:23:30;;;;;;;17.70;15.13;;;;;;;;;;5012724;28;20505;-77
2023/03/19 06:25:56;;;;;;;20.95;15.73;;;;;;;;;;4999463;28;20156;-77
2023/03/19 06:28:22;;;;;;;25.33;16.17;;;;;;;;;;4977623;28;20490;-77
2023/03/19 06:30:49;;;;;;;20.50;16.45;;;;;;;;;;5003262;28;20041;-77
2023/03/19 06:33:15;;;;;;;21.95;16.98;;;;;;;;;;4985792;28;20147;-77
2023/03/19 06:35:41;;;;;;;21.85;16.38;;;;;;;;;;5010403;28;20120;-77
2023/03/19 06:38:07;;;;;;;21.95;17.17;;;;;;;;;;5020302;28;20072;-78
2023/03/19 06:40:34;;;;;;;25.00;18.08;;;;;;;;;;5017611;28;21306;-78
2023/03/19 06:43:00;;;;;;;29.50;20.90;;;;;;;;;;5020919;28;20045;-76
2023/03/19 06:45:26;;;;;;;31.02;19.15;;;;;;;;;;5018204;28;20099;-77
2023/03/19 06:47:52;;;;;;;26.92;19.30;;;;;;;;;;5016934;28;20048;-77
2023/03/19 06:50:19;;;;;;;27.20;17.83;;;;;;;;;;5001815;28;20041;-77
2023/03/19 06:52:45;;;;;;;23.90;17.23;;;;;;;;;;5007292;28;20048;-77
2023/03/19 06:55:11;;;;;;;23.38;17.02;;;;;;;;;;4996445;28;21249;-77
2023/03/19 06:57:38;;;;;;;22.25;16.30;;;;;;;;;;5007382;28;20064;-77
2023/03/19 07:00:04;;;;;;;25.02;17.48;;;;;;;;;;5007335;28;20147;-76
2023/03/19 07:02:30;;;;;;;20.83;16.30;;;;;;;;;;5007951;28;22039;-75
2023/03/19 07:04:57;;;;;;;22.40;17.65;;;;;;;;;;5009932;28;20049;-76
2023/03/19 07:07:23;;;;;;;23.58;15.93;;;;;;;;;;5008453;28;20160;-77
2023/03/19 07:09:49;;;;;;;22.15;17.10;;;;;;;;;;5010597;28;20107;-78
2023/03/19 07:12:15;;;;;;;23.95;18.02;;;;;;;;;;5006478;28;20037;-77
2023/03/19 07:14:41;;;;;;;25.75;16.95;;;;;;;;;;5008271;28;20045;-75
2023/03/19 07:17:07;;;;;;;22.67;18.05;;;;;;;;;;5003904;28;20542;-76
2023/03/19 07:19:33;;;;;;;22.75;17.30;;;;;;;;;;4995660;28;20052;-77
2023/03/19 07:21:59;;;;;;;24.30;17.58;;;;;;;;;;5012380;28;20041;-76
2023/03/19 07:24:26;;;;;;;22.70;17.23;;;;;;;;;;5012236;28;20821;-77
2023/03/19 07:26:52;;;;;;;23.25;16.92;;;;;;;;;;4992624;28;20049;-78
2023/03/19 07:29:18;;;;;;;22.30;16.35;;;;;;;;;;4995167;28;20130;-77
2023/03/19 07:31:44;;;;;;;20.73;14.27;;;;;;;;;;5008235;28;20427;-78
2023/03/19 07:34:10;;;;;;;18.10;15.05;;;;;;;;;;5012266;28;20056;-76
2023/03/19 07:36:36;;;;;;;19.20;13.65;;;;;;;;;;5012788;28;20209;-77
2023/03/19 07:39:02;;;;;;;16.35;13.43;;;;;;;;;;5014856;28;20038;-78
2023/03/19 07:41:29;;;;;;;18.20;12.82;;;;;;;;;;4999232;28;20037;-80
2023/03/19 07:43:55;;;;;;;16.88;13.70;;;;;;;;;;5009009;28;20100;-78
2023/03/19 07:46:21;;;;;;;14.45;12.95;;;;;;;;;;4989433;28;20128;-78
2023/03/19 07:48:47;;;;;;;17.38;13.88;;;;;;;;;;5013882;28;20488;-78
2023/03/19 07:51:13;;;;;;;18.45;12.93;;;;;;;;;;5011092;28;20048;-78
2023/03/19 07:53:39;;;;;;;17.30;13.52;;;;;;;;;;5012714;28;20032;-78
2023/03/19 07:56:05;;;;;;;15.10;12.60;;;;;;;;;;5010532;28;20107;-78
2023/03/19 07:58:31;;;;;;;18.52;12.82;;;;;;;;;;5015348;28;20434;-78
2023/03/19 08:00:57;;;;;;;19.30;13.25;;;;;;;;;;4999763;28;20220;-78
2023/03/19 08:03:24;;;;;;;19.90;13.98;;;;;;;;;;5013062;28;20048;-77
2023/03/19 08:05:50;;;;;;;18.08;14.25;;;;;;;;;;5012531;28;20723;-78
2023/03/19 08:08:16;;;;;;;18.00;13.25;;;;;;;;;;5011025;28;20532;-77
2023/03/19 08:10:43;;;;;;;15.52;12.27;;;;;;;;;;5003562;28;20049;-77
2023/03/19 08:13:09;;;;;;;18.15;13.23;;;;;;;;;;5003452;28;20129;-77
2023/03/19 08:15:36;;;;;;;17.70;14.25;;;;;;;;;;5012493;28;20049;-78
2023/03/19 08:18:03;;;;;;;16.88;13.88;;;;;;;;;;5008820;28;20041;-78
2023/03/19 08:20:30;;;;;;;17.13;13.63;;;;;;;;;;4982601;28;20064;-78
2023/03/19 08:22:56;;;;;;;18.33;13.18;;;;;;;;;;4993629;28;20135;-78
2023/03/19 08:25:22;;;;;;;17.65;14.38;;;;;;;;;;4990171;28;20056;-78
2023/03/19 08:27:49;;;;;;;21.98;15.63;;;;;;;;;;4999747;28;20779;-78
2023/03/19 08:30:15;;;;;;;17.70;14.32;;;;;;;;;;5000247;28;21506;-78
2023/03/19 08:32:43;;;;;;;22.30;17.50;;;;;;;;;;4999323;28;20043;-78
2023/03/19 08:35:10;;;;;;;24.50;14.52;;;;;;;;;;4995408;28;20441;-79
2023/03/19 08:37:36;;;;;;;20.65;16.55;;;;;;;;;;4992752;28;20045;-78
2023/03/19 08:40:03;;;;;;;20.65;16.48;;;;;;;;;;5015869;28;20052;-78
2023/03/19 08:42:30;;;;;;;19.10;14.07;;;;;;;;;;5013927;28;20070;-78
2023/03/19 08:44:56;;;;;;;23.15;18.08;;;;;;;;;;5013370;28;20045;-79
2023/03/19 08:47:25;;;;;;;23.65;17.95;;;;;;;;;;5005426;28;20049;-78
2023/03/19 08:49:51;;;;;;;21.00;17.92;;;;;;;;;;4973872;28;20126;-79
2023/03/19 08:52:18;;;;;;;22.55;17.42;;;;;;;;;;5002367;28;20045;-78
2023/03/19 08:54:44;;;;;;;22.10;15.98;;;;;;;;;;4991400;28;20064;-78
2023/03/19 08:57:10;;;;;;;19.27;15.95;;;;;;;;;;4996217;28;20140;-78
2023/03/19 08:59:36;;;;;;;17.73;15.82;;;;;;;;;;5009886;28;20123;-78
2023/03/19 09:02:02;;;;;;;20.65;15.23;;;;;;;;;;5012509;28;20489;-78
2023/03/19 09:04:29;;;;;;;21.13;15.00;;;;;;;;;;4986236;28;20067;-79
2023/03/19 09:06:55;;;;;;;17.23;15.02;;;;;;;;;;4996547;28;20047;-80
2023/03/19 09:09:22;;;;;;;17.45;15.35;;;;;;;;;;4994286;28;20110;-79
2023/03/19 09:12:00;;;;;;;17.23;14.43;;;;;;;;;;5011054;28;20071;-80
2023/03/19 09:14:27;;;;;;;17.40;13.93;;;;;;;;;;5005971;28;20092;-80
2023/03/19 09:16:54;;;;;;;15.30;13.30;;;;;;;;;;5001576;28;21699;-79
2023/03/19 09:19:22;;;;;;;15.43;12.45;;;;;;;;;;5014341;28;20076;-79
2023/03/19 09:21:49;;;;;;;16.40;13.38;;;;;;;;;;5015810;28;20603;-80
2023/03/19 09:24:15;;;;;;;12.63;11.32;;;;;;;;;;5013040;28;20041;-80
2023/03/19 09:26:41;;;;;;;12.85;10.93;;;;;;;;;;5013945;28;20045;-79
2023/03/19 09:29:07;;;;;;;13.27;10.52;;;;;;;;;;4997354;28;20515;-80
2023/03/19 09:31:35;;;;;;;12.40;10.23;;;;;;;;;;5014454;28;20041;-80
2023/03/19 09:34:01;;;;;;;12.23;10.38;;;;;;;;;;5007896;28;20627;-80
2023/03/19 09:36:27;;;;;;;11.98;10.65;;;;;;;;;;4970231;28;20044;-79
2023/03/19 09:38:53;;;;;;;20.95;12.00;;;;;;;;;;4987654;28;20044;-79
2023/03/19 09:41:27;;;;;;;17.38;14.30;;;;;;;;;;4988780;28;20053;-79
2023/03/19 09:44:05;;;;;;;17.42;13.32;;;;;;;;;;5004100;28;20215;-78
2023/03/19 09:46:51;;;;;;;10.77;9.63;;;;;;;;;;4991766;28;20107;-80
2023/03/19 09:49:22;;;;;;;10.98;9.88;;;;;;;;;;5002680;28;20072;-78
2023/03/19 09:51:53;;;;;;;13.20;10.93;;;;;;;;;;5012578;28;20059;-78
2023/03/19 09:54:38;;;;;;;14.02;12.63;;;;;;;;;;5014778;28;20054;-78
2023/03/19 09:57:04;;;;;;;12.57;11.02;;;;;;;;;;4993887;28;20069;-79
2023/03/19 09:59:30;;;;;;;16.10;11.68;;;;;;;;;;5008726;28;20140;-80
2023/03/19 10:01:59;;;;;;;14.38;11.13;;;;;;;;;;4991571;28;20528;-79
2023/03/19 10:04:39;;;;;;;12.90;11.60;;;;;;;;;;4995978;28;20402;-80
2023/03/19 10:07:13;;;;;;;12.80;11.23;;;;;;;;;;5010697;28;20485;-79
2023/03/19 10:09:39;;;;;;;;;;;;;;;;;;5012397;28;20462;-80
2023/03/19 10:12:24;;;;;;;12.43;10.80;;;;;;;;;;5010424;28;19921;-79
2023/03/19 10:14:53;;;;;;;14.48;10.05;;;;;;;;;;4998867;28;20536;-78
2023/03/19 10:17:23;;;;;;;11.95;10.35;;;;;;;;;;5007419;28;20056;-79
2023/03/19 10:20:01;;;;;;;11.35;9.98;;;;;;;;;;5006732;28;20045;-79
2023/03/19 10:22:48;;;;;;;11.65;10.05;;;;;;;;;;5007373;28;20107;-79
2023/03/19 10:25:25;;;;;;;10.50;9.40;;;;;;;;;;5004728;28;20053;-79
2023/03/19 10:28:10;;;;;;;14.00;10.05;;;;;;;;;;5006023;28;20036;-79
2023/03/19 10:30:37;;;;;;;11.25;9.65;;;;;;;;;;5004142;28;20047;-80
2023/03/19 10:33:09;;;;;;;12.90;9.93;;;;;;;;;;4991152;28;20045;-81
2023/03/19 10:35:43;;;;;;;13.90;11.52;;;;;;;;;;5006203;28;20332;-81
2023/03/19 10:38:17;;;;;;;12.75;11.05;;;;;;;;;;5010014;28;20063;-81
2023/03/19 10:40:43;;;;;;;;;;;;;;;;;;5010829;28;20126;-82
2023/03/19 10:43:12;;;;;;;13.02;10.23;;;;;;;;;;5005607;28;19917;-82
2023/03/19 10:45:38;;;;;;;12.07;9.05;;;;;;;;;;4990274;28;20112;-81
2023/03/19 10:48:04;;;;;;;12.38;8.82;;;;;;;;;;4988050;28;20477;-81
2023/03/19 10:50:38;;;;;;;10.38;8.88;;;;;;;;;;5006680;28;20050;-80
2023/03/19 10:53:06;;;;;;;10.50;9.40;;;;;;;;;;4995400;28;22614;-80
2023/03/19 10:55:32;;;;;;;13.00;10.68;;;;;;;;;;4992190;28;20107;-80
2023/03/19 10:58:14;;;;;;;13.88;9.75;;;;;;;;;;5003382;28;20049;-80
2023/03/19 11:00:40;;;;;;;10.57;9.18;;;;;;;;;;5002484;28;20424;-80
2023/03/19 11:03:25;;;;;;;10.45;9.30;;;;;;;;;;5005180;28;20496;-80
2023/03/19 11:06:03;;;;;;;10.68;9.57;;;;;;;;;;4991345;28;20718;-81
2023/03/19 11:08:29;;;;;;;10.63;8.40;;;;;;;;;;4987917;28;20400;-80
2023/03/19 11:10:55;;;;;;;10.40;9.23;;;;;;;;;;5003385;28;20045;-80
2023/03/19 11:13:23;;;;;;;11.82;9.50;;;;;;;;;;5005010;28;20049;-81
2023/03/19 11:15:49;;;;;;;9.50;8.50;;;;;;;;;;4994668;28;20041;-80
2023/03/19 11:18:19;;;;;;;10.20;9.05;;;;;;;;;;4987769;28;20662;-80
2023/03/19 11:20:48;;;;;;;10.07;8.85;;;;;;;;;;5005724;28;20484;-81
2023/03/19 11:23:16;;;;;;;9.70;8.55;;;;;;;;;;5006322;28;20045;-80
2023/03/19 11:25:46;;;;;;;10.07;9.05;;;;;;;;;;5008949;28;20497;-81
2023/03/19 11:28:17;;;;;;;10.90;8.43;;;;;;;;;;5001070;28;20045;-80
2023/03/19 11:31:02;;;;;;;9.77;8.63;;;;;;;;;;5013468;28;20375;-80
2023/03/19 11:33:31;;;;;;;9.82;8.38;;;;;;;;;;5027156;28;20044;-80
2023/03/19 11:35:57;;;;;;;12.27;9.30;;;;;;;;;;5010554;28;20171;-79
2023/03/19 11:38:45;;;;;;;11.18;9.60;;;;;;;;;;5003108;28;20107;-79
2023/03/19 11:41:30;;;;;;;14.10;9.77;;;;;;;;;;4995561;28;20208;-79
2023/03/19 11:43:59;;;;;;;11.68;8.57;;;;;;;;;;4991581;28;20106;-80
2023/03/19 11:46:45;;;;;;;11.88;8.13;;;;;;;;;;5008336;28;20563;-80
2023/03/19 11:49:28;;;;;;;8.85;7.05;;;;;;;;;;4983086;28;20053;-79
2023/03/19 11:52:13;;;;;;;10.60;8.32;;;;;;;;;;4989359;28;20042;-80
2023/03/19 11:54:46;;;;;;;12.43;8.07;;;;;;;;;;4991992;28;20052;-81
2023/03/19 11:57:17;;;;;;;10.45;7.88;;;;;;;;;;4999000;28;21057;-80
2023/03/19 11:59:53;;;;;;;9.23;8.23;;;;;;;;;;4989934;28;20045;-81
2023/03/19 12:02:19;;;;;;;10.30;8.10;;;;;;;;;;4993594;28;20440;-80
2023/03/19 12:04:57;;;;;;;9.27;8.32;;;;;;;;;;4994282;28;20060;-80
2023/03/19 12:07:38;;;;;;;11.10;9.13;;;;;;;;;;5009665;28;20056;-80
2023/03/19 12:10:07;;;;;;;;;;;;;;;;;;5001261;28;20157;-79
2023/03/19 12:12:43;;;;;;;9.35;7.53;;;;;;;;;;5008392;28;19948;-81
2023/03/19 12:15:15;;;;;;;11.73;7.93;;;;;;;;;;4992638;28;20045;-81
2023/03/19 12:18:00;;;;;;;10.65;6.82;;;;;;;;;;5015067;28;20073;-81
2023/03/19 12:20:45;;;;;;;9.60;7.68;;;;;;;;;;5005630;28;20071;-80
2023/03/19 12:23:26;;;;;;;9.77;8.80;;;;;;;;;;4993488;28;20045;-81
2023/03/19 12:26:03;;;;;;;8.43;7.35;;;;;;;;;;5027563;28;20135;-81
2023/03/19 12:28:29;;;;;;;9.95;8.32;;;;;;;;;;5013658;28;20049;-80
2023/03/19 12:31:15;;;;;;;9.65;8.18;;;;;;;;;;4994266;28;20049;-81
2023/03/19 12:33:42;;;;;;;8.20;7.38;;;;;;;;;;4997794;28;20042;-81
2023/03/19 12:36:11;;;;;;;10.98;7.82;;;;;;;;;;5015064;28;20515;-80
2023/03/19 12:38:47;;;;;;;9.05;8.15;;;;;;;;;;5014805;28;20342;-80
2023/03/19 12:41:17;;;;;;;9.40;8.48;;;;;;;;;;4998149;28;20042;-80
2023/03/19 12:44:05;;;;;;;10.32;8.98;;;;;;;;;;5012506;28;20815;-80
2023/03/19 12:46:34;;;;;;;8.95;8.05;;;;;;;;;;4991496;28;20045;-80
2023/03/19 12:49:16;;;;;;;9.40;7.78;;;;;;;;;;4991922;28;20055;-81
2023/03/19 12:51:51;;;;;;;10.48;8.70;;;;;;;;;;4999464;28;20094;-80
2023/03/19 12:54:20;;;;;;;9.60;8.60;;;;;;;;;;5010351;28;20127;-80
2023/03/19 12:56:56;;;;;;;8.27;7.47;;;;;;;;;;5008171;28;20674;-80
2023/03/19 12:59:40;;;;;;;9.95;8.93;;;;;;;;;;4986009;28;20906;-79
2023/03/19 13:02:21;;;;;;;9.63;8.68;;;;;;;;;;4996835;28;20040;-79
2023/03/19 13:05:00;;;;;;;10.48;9.32;;;;;;;;;;5016150;28;20045;-78
2023/03/19 13:07:49;;;;;;;8.43;7.57;;;;;;;;;;4995816;28;20048;-80
2023/03/19 13:10:20;;;;;;;9.63;8.73;;;;;;;;;;4995224;28;20486;-80
2023/03/19 13:12:47;;;;;;;12.18;9.40;;;;;;;;;;4990791;28;20091;-80
2023/03/19 13:15:21;;;;;;;10.73;9.63;;;;;;;;;;4994478;28;20763;-81
2023/03/19 13:18:05;;;;;;;13.48;11.80;;;;;;;;;;5025535;28;20243;-81
2023/03/19 13:20:50;;;;;;;11.68;10.45;;;;;;;;;;5011938;28;20103;-81
2023/03/19 13:23:21;;;;;;;13.23;11.60;;;;;;;;;;5009339;28;20470;-79
2023/03/19 13:25:48;;;;;;;13.13;11.18;;;;;;;;;;5008650;28;20096;-78
2023/03/19 13:28:27;;;;;;;13.30;11.93;;;;;;;;;;5005111;28;20052;-78
2023/03/19 13:31:02;;;;;;;14.57;11.23;;;;;;;;;;4983529;28;21765;-82
2023/03/19 13:33:28;;;;;;;13.32;11.20;;;;;;;;;;5006389;28;20045;-80
2023/03/19 13:35:55;;;;;;;14.05;12.32;;;;;;;;;;4991843;28;20519;-80
2023/03/19 13:38:33;;;;;;;15.70;13.77;;;;;;;;;;5007019;28;20076;-81
2023/03/19 13:40:59;;;;;;;15.30;13.23;;;;;;;;;;4992536;28;20131;-81
2023/03/19 13:43:28;;;;;;;14.15;12.57;;;;;;;;;;4995382;28;20096;-83
2023/03/19 13:46:05;;;;;;;15.45;13.57;;;;;;;;;;4992538;28;20053;-82
2023/03/19 13:48:32;;;;;;;18.75;13.80;;;;;;;;;;5007729;28;20785;-82
2023/03/19 13:51:01;;;;;;;18.30;13.43;;;;;;;;;;4990477;28;20037;-81
2023/03/19 13:53:33;;;;;;;16.65;13.40;;;;;;;;;;4996548;28;20568;-82
2023/03/19 13:56:09;;;;;;;17.52;14.70;;;;;;;;;;4990068;28;20103;-83
2023/03/19 13:58:53;;;;;;;18.25;15.23;;;;;;;;;;4994907;28;20570;-83
2023/03/19 14:01:24;;;;;;;21.10;15.88;;;;;;;;;;5009883;28;20045;-81
2023/03/19 14:03:58;;;;;;;17.58;13.93;;;;;;;;;;5006252;28;20037;-83
2023/03/19 14:06:33;;;;;;;21.23;15.70;;;;;;;;;;4992091;28;20041;-84
2023/03/19 14:09:00;;;;;;;22.05;16.92;;;;;;;;;;5000780;28;20504;-84
2023/03/19 14:11:34;;;;;;;22.08;16.63;;;;;;;;;;5006724;28;20045;-83
2023/03/19 14:14:05;;;;;;;22.05;17.55;;;;;;;;;;4991363;28;20127;-84
2023/03/19 14:16:35;;;;;;;23.23;17.73;;;;;;;;;;4996381;28;20041;-82
2023/03/19 14:19:03;;;;;;;23.98;16.95;;;;;;;;;;5006699;28;20164;-81
2023/03/19 14:21:34;;;;;;;28.15;19.67;;;;;;;;;;4986629;28;20083;-80
2023/03/19 14:24:19;;;;;;;32.45;21.50;;;;;;;;;;4989120;28;20042;-80
2023/03/19 14:26:45;;;;;;;28.42;19.73;;;;;;;;;;4997192;28;20080;-81
2023/03/19 14:29:14;;;;;;;29.27;20.70;;;;;;;;;;5005693;28;20056;-81
2023/03/19 14:31:41;;;;;;;31.02;21.00;;;;;;;;;;4986571;28;20048;-81